Time;durP1;ratioP1;P1;durP2;ratioP2;P2;SDS_P1;SDS_P2;PMS_P1;PMS_P2;Temp;Humidity;BMP_temperature;BMP_pressure;BME280_temperature;BME280_humidity;BME280_pressure;Samples;Min_cycle;Max_cycle;Signal;HPM_P1;HPM_P2
2021/12/22 00:00:13;;;;;;;9.43;7.03;;;1.90;99.90;;;;;;5060082;28;20168;-80
2021/12/22 00:02:46;;;;;;;11.47;7.10;;;1.90;99.90;;;;;;5059752;28;20168;-79
2021/12/22 00:05:19;;;;;;;12.70;7.47;;;1.70;99.90;;;;;;5060114;28;20323;-81
2021/12/22 00:07:45;;;;;;;10.40;6.40;;;1.70;99.90;;;;;;5060258;28;20255;-80
2021/12/22 00:10:11;;;;;;;10.07;6.93;;;1.50;99.90;;;;;;5059843;28;20260;-80
2021/12/22 00:12:37;;;;;;;11.30;7.07;;;1.80;99.90;;;;;;5072791;28;20659;-80
2021/12/22 00:15:05;;;;;;;13.37;7.33;;;1.70;99.90;;;;;;5073675;28;20188;-80
2021/12/22 00:17:31;;;;;;;11.23;7.77;;;1.70;99.90;;;;;;5073358;28;20191;-80
2021/12/22 00:19:57;;;;;;;11.37;7.00;;;1.30;99.90;;;;;;5074998;28;20562;-81
2021/12/22 00:22:23;;;;;;;11.53;6.93;;;1.30;99.90;;;;;;5056773;28;20200;-80
2021/12/22 00:24:49;;;;;;;14.73;7.13;;;1.30;99.90;;;;;;5056724;28;20164;-81
2021/12/22 00:27:15;;;;;;;14.27;6.97;;;1.50;99.90;;;;;;5056319;28;20192;-81
2021/12/22 00:29:46;;;;;;;11.93;6.37;;;1.60;99.90;;;;;;5039929;28;20177;-82
2021/12/22 00:32:15;;;;;;;15.40;7.97;;;1.80;99.90;;;;;;5073108;28;20176;-80
2021/12/22 00:34:48;;;;;;;10.97;6.93;;;1.70;99.90;;;;;;5073084;28;20207;-82
2021/12/22 00:37:23;;;;;;;13.20;7.73;;;1.70;99.90;;;;;;5040638;28;20216;-79
2021/12/22 00:39:50;;;;;;;10.73;6.57;;;1.70;99.90;;;;;;5039970;28;20174;-80
2021/12/22 00:42:17;;;;;;;15.03;7.27;;;1.70;99.90;;;;;;5056539;28;20177;-82
2021/12/22 00:44:49;;;;;;;11.50;7.40;;;1.70;99.90;;;;;;5056221;28;20176;-80
2021/12/22 00:47:20;;;;;;;11.13;6.50;;;1.70;99.90;;;;;;5057179;28;20218;-82
2021/12/22 00:49:46;;;;;;;12.60;7.03;;;1.70;99.90;;;;;;5056195;28;20187;-80
2021/12/22 00:52:12;;;;;;;12.37;6.93;;;1.70;99.90;;;;;;5072727;28;20177;-80
2021/12/22 00:54:38;;;;;;;11.57;7.00;;;1.60;99.90;;;;;;5055507;28;20573;-81
2021/12/22 00:57:06;;;;;;;11.37;7.00;;;1.60;99.90;;;;;;5056119;28;20204;-80
2021/12/22 00:59:35;;;;;;;10.43;6.63;;;1.60;99.90;;;;;;5056666;28;20177;-82
2021/12/22 01:02:02;;;;;;;12.17;7.23;;;1.60;99.90;;;;;;5056088;28;20177;-81
2021/12/22 01:04:28;;;;;;;10.93;6.20;;;1.60;99.90;;;;;;5056216;28;20176;-82
2021/12/22 01:06:54;;;;;;;11.67;7.00;;;1.50;99.90;;;;;;5056067;28;20180;-82
2021/12/22 01:09:20;;;;;;;13.20;7.00;;;1.50;99.90;;;;;;5072903;28;20207;-83
2021/12/22 01:11:46;;;;;;;11.37;7.07;;;1.50;99.90;;;;;;5039491;28;20724;-80
2021/12/22 01:14:12;;;;;;;12.03;7.27;;;1.40;99.90;;;;;;5072002;28;20196;-81
2021/12/22 01:16:38;;;;;;;10.00;6.70;;;1.50;99.90;;;;;;5055782;28;20682;-81
2021/12/22 01:19:11;;;;;;;13.73;7.93;;;1.60;99.90;;;;;;5039171;28;20203;-80
2021/12/22 01:21:43;;;;;;;12.17;6.77;;;1.40;99.90;;;;;;5072465;28;20172;-81
2021/12/22 01:26:44;;;;;;;11.03;6.30;;;1.40;99.90;;;;;;5055781;28;20173;-82
2021/12/22 01:29:10;;;;;;;10.70;7.30;;;1.30;99.90;;;;;;5040313;28;20176;-83
2021/12/22 01:31:36;;;;;;;9.70;6.03;;;0.60;99.90;;;;;;5055792;28;20169;-81
2021/12/22 01:34:02;;;;;;;12.67;7.20;;;0.20;99.90;;;;;;5038888;28;20183;-81
2021/12/22 01:36:28;;;;;;;11.73;6.17;;;0.40;99.90;;;;;;5071638;28;20169;-81
2021/12/22 01:38:54;;;;;;;14.43;7.47;;;1.00;99.90;;;;;;5055249;28;20214;-83
2021/12/22 01:41:20;;;;;;;13.63;8.07;;;1.20;99.90;;;;;;5055499;28;20176;-82
2021/12/22 01:43:47;;;;;;;11.20;6.93;;;1.30;99.90;;;;;;5055394;28;20230;-81
2021/12/22 01:49:10;;;;;;;13.27;7.17;;;1.40;99.90;;;;;;5056642;28;20179;-82
2021/12/22 01:52:00;;;;;;;11.93;7.20;;;1.40;99.90;;;;;;5055355;28;20615;-82
2021/12/22 01:54:43;;;;;;;14.93;7.30;;;1.40;99.90;;;;;;5055173;28;20197;-80
2021/12/22 01:57:11;;;;;;;16.30;6.60;;;1.30;99.90;;;;;;5054997;28;20207;-79
2021/12/22 01:59:39;;;;;;;10.30;6.57;;;1.40;99.90;;;;;;5072916;28;20168;-80
2021/12/22 02:02:08;;;;;;;9.40;6.80;;;1.30;99.90;;;;;;5038061;28;20184;-81
2021/12/22 02:04:35;;;;;;;10.63;6.80;;;1.30;99.90;;;;;;5054788;28;20634;-81
2021/12/22 02:07:01;;;;;;;12.27;7.73;;;1.30;99.90;;;;;;5055488;28;20176;-83
2021/12/22 02:11:55;;;;;;;14.90;8.60;;;1.10;99.90;;;;;;5071395;28;20200;-81
2021/12/22 02:14:21;;;;;;;13.57;7.27;;;1.10;99.90;;;;;;5053998;28;20232;-80
2021/12/22 02:16:47;;;;;;;12.03;7.03;;;1.10;99.90;;;;;;5054390;28;20193;-81
2021/12/22 02:19:14;;;;;;;11.07;7.43;;;1.10;99.90;;;;;;5038019;28;20185;-82
2021/12/22 02:21:46;;;;;;;12.47;7.17;;;1.20;99.90;;;;;;5071344;28;20173;-79
2021/12/22 02:24:13;;;;;;;12.87;7.70;;;1.20;99.90;;;;;;5039065;28;20175;-80
2021/12/22 02:26:50;;;;;;;10.80;6.83;;;1.30;99.90;;;;;;5054630;28;20176;-81
2021/12/22 02:29:19;;;;;;;11.03;6.50;;;1.40;99.90;;;;;;5039383;28;20172;-81
2021/12/22 02:31:50;;;;;;;10.00;6.37;;;1.40;99.90;;;;;;5071351;28;20196;-81
2021/12/22 02:34:16;;;;;;;15.20;7.07;;;1.40;99.90;;;;;;5038534;28;20169;-80
2021/12/22 02:36:43;;;;;;;13.13;8.20;;;1.30;99.90;;;;;;5054100;28;20169;-81
2021/12/22 02:39:09;;;;;;;14.40;7.80;;;1.30;99.90;;;;;;5071031;28;20550;-79
2021/12/22 02:41:38;;;;;;;11.43;7.23;;;1.20;99.90;;;;;;5054557;28;20173;-80
2021/12/22 02:44:07;;;;;;;12.00;7.10;;;1.20;99.90;;;;;;5071096;28;20176;-79
2021/12/22 02:46:36;;;;;;;11.97;7.20;;;1.20;99.90;;;;;;5070365;28;20187;-79
2021/12/22 02:49:04;;;;;;;10.47;7.07;;;1.20;99.90;;;;;;5037757;28;20200;-80
2021/12/22 02:51:30;;;;;;;10.37;7.27;;;1.20;99.90;;;;;;5038016;28;20173;-79
2021/12/22 02:56:53;;;;;;;11.27;7.17;;;1.20;99.90;;;;;;5070896;28;20171;-82
2021/12/22 02:59:46;;;;;;;15.30;7.60;;;1.20;99.90;;;;;;5071343;28;20183;-80
2021/12/22 03:02:33;;;;;;;12.83;7.97;;;1.10;99.90;;;;;;5057490;28;20164;-81
2021/12/22 03:04:59;;;;;;;12.50;7.23;;;0.90;99.90;;;;;;5057058;28;20168;-81
2021/12/22 03:07:28;;;;;;;12.23;7.10;;;1.00;99.90;;;;;;5070615;28;20226;-79
2021/12/22 03:10:00;;;;;;;13.53;8.07;;;1.20;99.90;;;;;;5070854;28;20643;-81
2021/12/22 03:12:28;;;;;;;13.13;7.27;;;1.10;99.90;;;;;;5037933;28;20238;-82
2021/12/22 03:14:55;;;;;;;10.93;6.30;;;1.20;99.90;;;;;;5053792;28;20228;-82
2021/12/22 03:17:21;;;;;;;12.77;7.07;;;1.20;99.90;;;;;;5091526;28;20203;-79
2021/12/22 03:19:47;;;;;;;14.10;7.47;;;1.20;99.90;;;;;;5024948;28;20647;-80
2021/12/22 03:22:18;;;;;;;12.03;7.67;;;1.20;99.90;;;;;;5070761;28;20200;-82
2021/12/22 03:24:47;;;;;;;10.13;7.33;;;1.10;99.90;;;;;;5070988;28;20173;-82
2021/12/22 03:27:13;;;;;;;14.53;7.80;;;1.00;99.90;;;;;;5070603;28;20433;-80
2021/12/22 03:29:39;;;;;;;12.27;7.23;;;0.80;99.90;;;;;;5070840;28;20172;-82
2021/12/22 03:32:06;;;;;;;11.30;7.03;;;0.80;99.90;;;;;;5037325;28;20245;-80
2021/12/22 03:34:33;;;;;;;12.47;7.67;;;0.80;99.90;;;;;;5070515;28;20259;-83
2021/12/22 03:36:59;;;;;;;18.53;8.43;;;0.90;99.90;;;;;;5070572;28;20284;-81
2021/12/22 03:39:24;;;;;;;13.13;8.00;;;0.80;99.90;;;;;;5070786;28;20200;-82
2021/12/22 03:41:50;;;;;;;14.53;7.43;;;0.80;99.90;;;;;;5070520;28;20165;-80
2021/12/22 03:44:17;;;;;;;10.97;6.83;;;0.60;99.90;;;;;;5020876;28;20681;-81
2021/12/22 03:46:42;;;;;;;12.70;7.57;;;0.80;99.90;;;;;;5072431;28;20628;-83
2021/12/22 03:49:10;;;;;;;15.87;7.53;;;1.10;99.90;;;;;;5074226;28;20260;-79
2021/12/22 03:51:36;;;;;;;12.13;7.03;;;1.00;99.90;;;;;;5040692;28;20716;-80
2021/12/22 03:54:09;;;;;;;13.43;7.37;;;0.90;99.90;;;;;;5040477;28;20192;-80
2021/12/22 03:56:35;;;;;;;13.67;7.13;;;0.80;99.90;;;;;;5074210;28;20271;-81
2021/12/22 03:59:01;;;;;;;14.23;8.50;;;0.60;99.90;;;;;;5073913;28;20584;-81
2021/12/22 04:01:27;;;;;;;11.47;7.63;;;0.40;99.90;;;;;;5057421;28;20175;-81
2021/12/22 04:03:57;;;;;;;13.63;7.93;;;0.40;99.90;;;;;;5040791;28;20632;-81
2021/12/22 04:06:23;;;;;;;11.13;7.13;;;0.50;99.90;;;;;;5058110;28;20172;-82
2021/12/22 04:08:49;;;;;;;13.43;7.57;;;0.70;99.90;;;;;;5057194;28;20199;-81
2021/12/22 04:11:14;;;;;;;14.17;7.83;;;0.90;99.90;;;;;;5057222;28;20206;-82
2021/12/22 04:13:41;;;;;;;13.33;7.70;;;0.90;99.90;;;;;;5073890;28;20202;-80
2021/12/22 04:16:06;;;;;;;14.07;8.17;;;1.00;99.90;;;;;;5040278;28;20621;-80
2021/12/22 04:18:33;;;;;;;10.87;7.20;;;1.10;99.90;;;;;;5073841;28;20667;-81
2021/12/22 04:20:59;;;;;;;12.07;7.40;;;1.00;99.90;;;;;;5057363;28;20176;-79
2021/12/22 04:23:25;;;;;;;14.00;7.53;;;0.90;99.90;;;;;;5057038;28;20187;-82
2021/12/22 04:25:51;;;;;;;11.60;6.77;;;0.30;99.90;;;;;;5040078;28;20172;-80
2021/12/22 04:28:17;;;;;;;10.87;7.43;;;0.10;99.90;;;;;;5056471;28;20180;-81
2021/12/22 04:30:48;;;;;;;13.93;8.33;;;0.40;99.90;;;;;;5040094;28;20233;-82
2021/12/22 04:33:15;;;;;;;11.40;7.07;;;0.50;99.90;;;;;;5073508;28;20546;-81
2021/12/22 04:35:42;;;;;;;12.30;7.60;;;0.80;99.90;;;;;;5023755;28;20172;-81
2021/12/22 04:38:08;;;;;;;13.23;7.93;;;0.50;99.90;;;;;;5056702;28;20245;-81
2021/12/22 04:40:34;;;;;;;11.70;7.90;;;0.60;99.90;;;;;;5073449;28;20256;-82
2021/12/22 04:43:00;;;;;;;13.83;6.93;;;0.70;99.90;;;;;;5056833;28;20165;-82
2021/12/22 04:45:26;;;;;;;16.70;8.10;;;0.90;99.90;;;;;;5040048;28;20662;-82
2021/12/22 04:47:52;;;;;;;14.13;7.80;;;0.90;99.90;;;;;;5023556;28;20264;-81
2021/12/22 04:50:21;;;;;;;13.03;7.70;;;0.80;99.90;;;;;;5039689;28;20553;-82
2021/12/22 04:53:07;;;;;;;14.80;7.53;;;0.90;99.90;;;;;;5040052;28;20180;-82
2021/12/22 04:55:33;;;;;;;15.50;7.70;;;0.90;99.90;;;;;;5044263;28;20214;-79
2021/12/22 04:58:00;;;;;;;16.50;8.00;;;0.80;99.90;;;;;;5039259;28;20691;-81
2021/12/22 05:00:30;;;;;;;13.97;7.00;;;0.70;99.90;;;;;;5056810;28;20179;-81
2021/12/22 05:02:56;;;;;;;13.03;7.63;;;0.80;99.90;;;;;;5039730;28;20180;-80
2021/12/22 05:05:23;;;;;;;12.37;7.73;;;0.70;99.90;;;;;;5074387;28;20654;-82
2021/12/22 05:07:49;;;;;;;12.63;7.53;;;0.60;99.90;;;;;;5056431;28;20238;-80
2021/12/22 05:10:18;;;;;;;11.67;7.93;;;0.30;99.90;;;;;;5056098;28;20229;-81
2021/12/22 05:12:46;;;;;;;14.83;7.80;;;0.40;99.90;;;;;;5072930;28;20183;-80
2021/12/22 05:15:13;;;;;;;12.13;7.50;;;0.50;99.90;;;;;;5056035;28;20223;-80
2021/12/22 05:20:14;;;;;;;13.80;7.73;;;0.40;99.90;;;;;;5072826;28;20161;-81
2021/12/22 05:22:40;;;;;;;14.57;8.10;;;0.60;99.90;;;;;;5057011;28;20264;-79
2021/12/22 05:25:08;;;;;;;12.27;6.70;;;0.60;99.90;;;;;;5055743;28;20604;-79
2021/12/22 05:27:35;;;;;;;11.50;7.53;;;0.30;99.90;;;;;;5055556;28;20204;-79
2021/12/22 05:30:01;;;;;;;13.00;8.13;;;0.50;99.90;;;;;;5072186;28;20230;-83
2021/12/22 05:32:31;;;;;;;11.23;7.40;;;0.70;99.90;;;;;;5056034;28;20173;-80
2021/12/22 05:34:58;;;;;;;10.37;6.73;;;0.70;99.90;;;;;;5072261;28;20211;-80
2021/12/22 05:37:24;;;;;;;12.60;7.30;;;0.50;99.90;;;;;;5072122;28;20797;-79
2021/12/22 05:39:51;;;;;;;13.97;7.60;;;0.60;99.90;;;;;;5055271;28;20181;-82
2021/12/22 05:42:18;;;;;;;12.27;8.00;;;0.70;99.90;;;;;;5055867;28;20165;-79
2021/12/22 05:44:44;;;;;;;12.30;7.50;;;0.70;99.90;;;;;;5055776;28;20662;-80
2021/12/22 05:47:10;;;;;;;12.23;7.00;;;0.60;99.90;;;;;;5038535;28;20211;-81
2021/12/22 05:49:36;;;;;;;13.37;7.70;;;0.80;99.90;;;;;;5038239;28;20272;-81
2021/12/22 05:52:02;;;;;;;11.10;7.33;;;0.70;99.90;;;;;;5022422;28;20176;-82
2021/12/22 05:54:28;;;;;;;14.10;8.03;;;0.40;99.90;;;;;;5055291;28;20180;-81
2021/12/22 05:56:54;;;;;;;11.93;7.93;;;0.50;99.90;;;;;;5038440;28;20169;-80
2021/12/22 05:59:20;;;;;;;13.27;6.87;;;0.70;99.90;;;;;;5022364;28;20222;-81
2021/12/22 06:01:45;;;;;;;14.63;7.90;;;0.70;99.90;;;;;;5038741;28;20176;-82
2021/12/22 06:04:11;;;;;;;12.80;7.23;;;0.70;99.90;;;;;;5055278;28;20705;-81
2021/12/22 06:06:37;;;;;;;13.27;8.47;;;0.80;99.90;;;;;;5038022;28;20183;-82
2021/12/22 06:09:04;;;;;;;13.43;7.97;;;0.60;99.90;;;;;;5021326;28;20593;-80
2021/12/22 06:11:30;;;;;;;10.90;8.17;;;0.60;99.90;;;;;;5072718;28;20264;-79
2021/12/22 06:13:57;;;;;;;14.57;8.03;;;0.60;99.90;;;;;;5054903;28;20263;-80
2021/12/22 06:16:24;;;;;;;10.83;7.30;;;0.70;99.90;;;;;;5055343;28;20877;-82
2021/12/22 06:18:55;;;;;;;12.47;8.07;;;0.40;99.90;;;;;;5071622;28;20200;-82
2021/12/22 06:21:22;;;;;;;13.93;7.87;;;0.10;99.90;;;;;;5055063;28;20643;-81
2021/12/22 06:23:48;;;;;;;15.70;8.33;;;-0.10;99.90;;;;;;5054905;28;20204;-81
2021/12/22 06:26:14;;;;;;;13.37;8.33;;;0.10;99.90;;;;;;5037666;28;20192;-81
2021/12/22 06:28:40;;;;;;;11.93;7.30;;;0.30;99.90;;;;;;5038004;28;20180;-80
2021/12/22 06:31:06;;;;;;;13.27;8.47;;;0.40;99.90;;;;;;5038070;28;20172;-80
2021/12/22 06:33:35;;;;;;;13.33;8.20;;;0.40;99.90;;;;;;5071930;28;20233;-82
2021/12/22 06:36:01;;;;;;;12.80;8.30;;;0.60;99.90;;;;;;5054327;28;21035;-79
2021/12/22 06:38:27;;;;;;;13.63;8.13;;;0.70;99.90;;;;;;5054624;28;20193;-80
2021/12/22 06:40:53;;;;;;;13.57;8.20;;;0.70;99.90;;;;;;5071183;28;20252;-80
2021/12/22 06:43:19;;;;;;;9.80;7.17;;;0.70;99.90;;;;;;5054606;28;20178;-82
2021/12/22 06:45:45;;;;;;;12.00;7.77;;;0.70;99.90;;;;;;5054074;28;20255;-80
2021/12/22 06:48:11;;;;;;;13.10;8.50;;;0.70;99.90;;;;;;5037665;28;20334;-79
2021/12/22 06:50:37;;;;;;;13.53;8.20;;;0.60;99.90;;;;;;5071316;28;20179;-81
2021/12/22 06:53:03;;;;;;;16.37;8.43;;;0.50;99.90;;;;;;5054516;28;20168;-82
2021/12/22 06:55:28;;;;;;;13.67;7.90;;;0.40;99.90;;;;;;5070950;28;20189;-80
2021/12/22 06:57:55;;;;;;;20.13;8.80;;;1.00;99.90;;;;;;5037980;28;20277;-81
2021/12/22 07:00:22;;;;;;;13.60;8.73;;;0.40;99.90;;;;;;5054147;28;20544;-80
2021/12/22 07:02:47;;;;;;;13.23;7.73;;;0.30;99.90;;;;;;5053828;28;20534;-80
2021/12/22 07:05:14;;;;;;;11.83;7.90;;;0.30;99.90;;;;;;5071325;28;20169;-81
2021/12/22 07:07:41;;;;;;;14.53;7.60;;;0.30;99.90;;;;;;5050882;28;20209;-83
2021/12/22 07:10:10;;;;;;;14.00;7.80;;;0.60;99.90;;;;;;5037796;28;20600;-83
2021/12/22 07:12:37;;;;;;;13.87;8.33;;;0.40;99.90;;;;;;5054639;28;20215;-79
2021/12/22 07:15:04;;;;;;;15.93;7.93;;;0.30;99.90;;;;;;5070860;28;20225;-82
2021/12/22 07:17:30;;;;;;;13.37;7.87;;;0.40;99.90;;;;;;5069958;28;20196;-82
2021/12/22 07:19:56;;;;;;;16.90;7.40;;;0.50;99.90;;;;;;5037384;28;20236;-81
2021/12/22 07:22:22;;;;;;;15.43;8.43;;;0.20;99.90;;;;;;5043257;28;20184;-78
2021/12/22 07:24:48;;;;;;;18.17;8.23;;;0.30;99.90;;;;;;5073444;28;20217;-79
2021/12/22 07:27:14;;;;;;;17.63;8.97;;;0.50;99.90;;;;;;5071910;28;20237;-82
2021/12/22 07:29:41;;;;;;;15.27;8.80;;;0.70;99.90;;;;;;5041627;28;20277;-78
2021/12/22 07:32:07;;;;;;;18.43;9.00;;;0.60;99.90;;;;;;5074597;28;20243;-79
2021/12/22 07:34:42;;;;;;;12.97;8.10;;;0.70;99.90;;;;;;5073096;28;20184;-80
2021/12/22 07:37:22;;;;;;;15.67;8.77;;;0.80;99.90;;;;;;5055330;28;20231;-79
2021/12/22 07:39:49;;;;;;;16.03;8.40;;;0.80;99.90;;;;;;5073706;28;20179;-79
2021/12/22 07:42:14;;;;;;;17.13;9.10;;;0.80;99.90;;;;;;5059395;28;20264;-80
2021/12/22 07:44:44;;;;;;;14.47;8.30;;;0.80;99.90;;;;;;5088406;28;20255;-80
2021/12/22 07:47:11;;;;;;;17.23;8.67;;;0.60;99.90;;;;;;5065166;28;20287;-80
2021/12/22 07:49:38;;;;;;;13.77;8.53;;;0.50;99.90;;;;;;5043800;28;20185;-79
2021/12/22 07:52:06;;;;;;;14.20;8.20;;;0.40;99.90;;;;;;5071888;28;20177;-81
2021/12/22 07:54:32;;;;;;;14.13;7.13;;;0.40;99.90;;;;;;5038321;28;20188;-79
2021/12/22 07:56:57;;;;;;;11.30;7.50;;;0.50;99.90;;;;;;5054394;28;20192;-80
2021/12/22 07:59:23;;;;;;;11.17;7.83;;;0.70;99.90;;;;;;5037866;28;20203;-80
2021/12/22 08:01:49;;;;;;;12.37;8.23;;;0.70;99.90;;;;;;5037884;28;20176;-81
2021/12/22 08:04:15;;;;;;;13.50;8.77;;;0.80;99.90;;;;;;5037765;28;20574;-80
2021/12/22 08:06:41;;;;;;;10.97;7.70;;;0.70;99.90;;;;;;5066604;28;20177;-79
2021/12/22 08:09:07;;;;;;;15.20;8.50;;;0.60;99.90;;;;;;5063595;28;20616;-79
2021/12/22 08:11:35;;;;;;;14.37;8.43;;;0.60;99.90;;;;;;5054943;28;20191;-81
2021/12/22 08:14:00;;;;;;;13.83;8.37;;;0.70;99.90;;;;;;5073065;28;20230;-80
2021/12/22 08:16:26;;;;;;;16.97;9.20;;;0.80;99.90;;;;;;5053916;28;20180;-80
2021/12/22 08:18:52;;;;;;;14.03;8.53;;;0.80;99.90;;;;;;5055608;28;20216;-82
2021/12/22 08:21:19;;;;;;;15.67;9.17;;;0.80;99.90;;;;;;5054947;28;20185;-79
2021/12/22 08:23:45;;;;;;;17.70;10.03;;;0.70;99.90;;;;;;5072047;28;20180;-80
2021/12/22 08:26:11;;;;;;;19.40;8.27;;;0.70;99.90;;;;;;5054336;28;20184;-82
2021/12/22 08:28:37;;;;;;;11.87;7.50;;;0.50;99.90;;;;;;5065761;28;20181;-82
2021/12/22 08:31:03;;;;;;;14.50;8.97;;;1.00;99.90;;;;;;5052445;28;20306;-80
2021/12/22 08:33:31;;;;;;;17.87;8.47;;;0.70;99.90;;;;;;5052973;28;20187;-80
2021/12/22 08:38:52;;;;;;;15.80;9.13;;;0.80;99.90;;;;;;5073288;28;20604;-83
2021/12/22 08:41:20;;;;;;;19.00;10.80;;;0.80;99.90;;;;;;5073263;28;20168;-81
2021/12/22 08:43:46;;;;;;;19.90;10.53;;;0.70;99.90;;;;;;5072563;28;20169;-81
2021/12/22 08:46:11;;;;;;;15.33;9.33;;;0.70;99.90;;;;;;5056231;28;20176;-80
2021/12/22 08:48:37;;;;;;;19.83;9.97;;;0.70;99.90;;;;;;5055460;28;20251;-82
2021/12/22 08:51:03;;;;;;;18.90;9.73;;;0.80;99.90;;;;;;5059232;28;20192;-80
2021/12/22 08:53:29;;;;;;;20.53;9.47;;;0.80;99.90;;;;;;5058701;28;20191;-81
2021/12/22 08:55:55;;;;;;;17.00;9.80;;;0.90;99.90;;;;;;5039847;28;20659;-81
2021/12/22 08:58:21;;;;;;;18.13;10.27;;;0.90;99.90;;;;;;5057131;28;20204;-84
2021/12/22 09:00:47;;;;;;;14.33;8.70;;;0.70;99.90;;;;;;5056201;28;20184;-84
2021/12/22 09:03:13;;;;;;;16.13;8.80;;;0.80;99.90;;;;;;5073615;28;20184;-83
2021/12/22 09:05:39;;;;;;;22.77;10.33;;;0.80;99.90;;;;;;5076898;28;20199;-85
2021/12/22 09:08:05;;;;;;;16.23;9.63;;;0.70;99.90;;;;;;5075782;28;20180;-89
2021/12/22 09:10:31;;;;;;;14.80;9.67;;;0.20;99.90;;;;;;5034637;28;20188;-83
2021/12/22 09:12:59;;;;;;;15.57;8.93;;;0.10;99.90;;;;;;5072250;28;20195;-79
2021/12/22 09:15:25;;;;;;;14.40;8.80;;;0.10;99.90;;;;;;5089668;28;20222;-78
2021/12/22 09:17:51;;;;;;;17.07;10.20;;;0.60;99.90;;;;;;5056303;28;20208;-78
2021/12/22 09:20:16;;;;;;;15.53;9.60;;;0.90;99.90;;;;;;5068985;28;20679;-80
2021/12/22 09:22:42;;;;;;;16.17;10.30;;;1.10;99.90;;;;;;5068313;28;20481;-85
2021/12/22 09:25:09;;;;;;;17.17;10.00;;;1.10;99.90;;;;;;5051854;28;20184;-79
2021/12/22 09:27:35;;;;;;;14.60;9.13;;;1.10;99.90;;;;;;5037655;28;20307;-81
2021/12/22 09:30:01;;;;;;;13.80;9.67;;;1.00;99.90;;;;;;5056365;28;20188;-84
2021/12/22 09:32:27;;;;;;;21.47;10.07;;;1.00;99.90;;;;;;5041321;28;20188;-79
2021/12/22 09:34:53;;;;;;;15.77;9.83;;;1.10;99.90;;;;;;5039044;28;20234;-78
2021/12/22 09:37:19;;;;;;;14.67;9.87;;;1.10;99.90;;;;;;5072666;28;20219;-81
2021/12/22 09:39:46;;;;;;;16.37;9.60;;;1.20;99.90;;;;;;5072832;28;20168;-79
2021/12/22 09:42:12;;;;;;;26.57;13.93;;;1.30;99.90;;;;;;5038624;28;20177;-76
2021/12/22 09:44:46;;;;;;;20.97;12.20;;;1.30;99.90;;;;;;5037685;28;20172;-80
2021/12/22 09:47:25;;;;;;;14.10;9.23;;;1.30;99.90;;;;;;5070683;28;20693;-84
2021/12/22 09:50:11;;;;;;;21.95;14.07;;;1.40;99.90;;;;;;5054166;28;20441;-85
2021/12/22 09:52:38;;;;;;;15.10;9.87;;;1.40;99.90;;;;;;5069795;28;20172;-80
2021/12/22 09:55:07;;;;;;;15.00;9.77;;;1.30;99.90;;;;;;5086452;28;20659;-79
2021/12/22 09:57:34;;;;;;;20.30;11.30;;;1.30;99.90;;;;;;5035887;28;20292;-81
2021/12/22 10:00:01;;;;;;;16.33;10.10;;;1.30;99.90;;;;;;5036035;28;20184;-82
2021/12/22 10:02:29;;;;;;;18.63;10.07;;;1.50;99.90;;;;;;5068984;28;20176;-83
2021/12/22 10:05:00;;;;;;;17.97;9.67;;;1.60;99.90;;;;;;5062422;28;20173;-83
2021/12/22 10:07:30;;;;;;;17.33;9.63;;;1.70;99.90;;;;;;5052269;28;20188;-79
2021/12/22 10:10:04;;;;;;;21.10;10.20;;;1.80;99.90;;;;;;5052058;28;20184;-82
2021/12/22 10:12:30;;;;;;;19.10;9.77;;;1.90;99.90;;;;;;5069203;28;20857;-81
2021/12/22 10:14:58;;;;;;;21.13;9.40;;;1.90;99.90;;;;;;5035088;28;20506;-83
2021/12/22 10:17:34;;;;;;;16.80;9.40;;;1.90;99.90;;;;;;5062959;28;20200;-81
2021/12/22 10:20:04;;;;;;;17.57;8.83;;;1.80;99.90;;;;;;5051718;28;20207;-78
2021/12/22 10:22:45;;;;;;;13.33;8.47;;;1.60;99.90;;;;;;5067337;28;20741;-81
2021/12/22 10:25:14;;;;;;;17.67;11.03;;;1.80;99.90;;;;;;5066784;28;20408;-79
2021/12/22 10:27:42;;;;;;;15.20;9.47;;;2.00;99.90;;;;;;5047399;28;20243;-82
2021/12/22 10:30:29;;;;;;;15.87;8.90;;;2.10;99.90;;;;;;5042596;28;20279;-86
2021/12/22 10:33:15;;;;;;;14.37;8.73;;;2.10;99.90;;;;;;5084061;28;20173;-84
2021/12/22 10:35:43;;;;;;;13.33;8.37;;;2.00;99.90;;;;;;5068826;28;20180;-80
2021/12/22 10:38:11;;;;;;;14.27;8.77;;;2.20;99.90;;;;;;5055063;28;20204;-82
2021/12/22 10:40:41;;;;;;;12.17;8.20;;;2.40;99.90;;;;;;5071162;28;20600;-80
2021/12/22 10:43:09;;;;;;;12.30;8.23;;;2.40;99.90;;;;;;5087526;28;20169;-82
2021/12/22 10:45:36;;;;;;;12.17;7.57;;;2.50;99.90;;;;;;5068924;28;20225;-81
2021/12/22 10:50:55;;;;;;;14.50;9.30;;;2.60;99.90;;;;;;5071683;28;20192;-80
2021/12/22 10:53:21;;;;;;;12.93;8.33;;;2.60;99.90;;;;;;5054651;28;20173;-81
2021/12/22 10:55:53;;;;;;;15.73;8.67;;;2.80;99.90;;;;;;5035492;28;20303;-83
2021/12/22 10:58:25;;;;;;;15.47;8.53;;;2.80;99.90;;;;;;5034966;28;20292;-82
2021/12/22 11:01:13;;;;;;;13.07;8.47;;;2.80;99.90;;;;;;5041847;28;20187;-84
2021/12/22 11:03:44;;;;;;;14.87;8.87;;;3.00;99.90;;;;;;5072856;28;20225;-82
2021/12/22 11:06:31;;;;;;;12.27;7.83;;;3.10;99.90;;;;;;5054713;28;20264;-83
2021/12/22 11:09:15;;;;;;;12.50;7.50;;;3.20;99.90;;;;;;5067883;28;20196;-82
2021/12/22 11:11:43;;;;;;;14.40;7.70;;;3.20;99.90;;;;;;5071677;28;20188;-78
2021/12/22 11:14:22;;;;;;;12.63;7.67;;;3.30;99.90;;;;;;5089267;28;20176;-85
2021/12/22 11:17:12;;;;;;;16.07;10.00;;;3.20;99.90;;;;;;5071431;28;20672;-82
2021/12/22 11:19:58;;;;;;;14.60;8.23;;;3.20;99.90;;;;;;5071871;28;20553;-82
2021/12/22 11:22:52;;;;;;;12.43;7.73;;;3.50;99.90;;;;;;5058074;28;20176;-81
2021/12/22 11:25:19;;;;;;;12.63;7.23;;;3.50;99.90;;;;;;5070421;28;20574;-86
2021/12/22 11:27:46;;;;;;;13.30;7.43;;;3.70;99.90;;;;;;5050125;28;20188;-82
2021/12/22 11:30:12;;;;;;;12.33;7.70;;;3.70;99.90;;;;;;5052166;28;20242;-85
2021/12/22 11:32:39;;;;;;;12.10;8.43;;;3.70;99.90;;;;;;5062645;28;20177;-83
2021/12/22 11:35:11;;;;;;;13.10;7.57;;;3.70;99.90;;;;;;5074982;28;20214;-82
2021/12/22 11:37:38;;;;;;;13.50;8.10;;;3.70;99.90;;;;;;5083353;28;20347;-85
2021/12/22 11:40:08;;;;;;;12.23;7.90;;;3.80;99.90;;;;;;5053709;28;20204;-81
2021/12/22 11:42:38;;;;;;;11.50;7.33;;;3.70;99.90;;;;;;5054761;28;20286;-84
2021/12/22 11:45:09;;;;;;;14.40;7.47;;;3.70;99.90;;;;;;5052415;28;20176;-84
2021/12/22 11:47:37;;;;;;;11.30;7.40;;;3.70;99.90;;;;;;5053849;28;20612;-81
2021/12/22 11:50:06;;;;;;;15.17;8.80;;;3.80;99.90;;;;;;5056600;28;20190;-86
2021/12/22 11:52:38;;;;;;;11.73;7.50;;;3.70;99.90;;;;;;5086377;28;20553;-81
2021/12/22 11:55:09;;;;;;;13.23;8.27;;;3.70;99.90;;;;;;5088153;28;20329;-86
2021/12/22 11:57:36;;;;;;;13.33;8.07;;;3.50;99.90;;;;;;5070728;28;20215;-81
2021/12/22 12:00:25;;;;;;;17.67;8.20;;;3.60;99.90;;;;;;5070937;28;20180;-81
2021/12/22 12:02:52;;;;;;;11.70;7.10;;;3.30;99.90;;;;;;5054791;28;20173;-85
2021/12/22 12:05:26;;;;;;;13.57;7.07;;;3.70;99.90;;;;;;5053727;28;20719;-84
2021/12/22 12:07:57;;;;;;;12.37;7.83;;;4.40;99.90;;;;;;5041875;28;20188;-83
2021/12/22 12:10:35;;;;;;;13.37;8.83;;;4.90;99.90;;;;;;5040494;28;20215;-83
2021/12/22 12:13:08;;;;;;;12.27;7.90;;;5.10;99.90;;;;;;5057323;28;20696;-80
2021/12/22 12:22:37;;;;;;;13.10;7.73;;;5.30;99.90;;;;;;5072752;28;20247;-83
2021/12/22 12:25:05;;;;;;;12.00;7.77;;;5.20;99.90;;;;;;5046952;28;20181;-83
2021/12/22 12:27:37;;;;;;;11.07;7.40;;;5.00;99.90;;;;;;5054047;28;20169;-79
2021/12/22 12:30:06;;;;;;;11.57;8.53;;;4.70;99.90;;;;;;5036941;28;20170;-84
2021/12/22 12:32:50;;;;;;;15.40;7.70;;;4.30;99.90;;;;;;5037189;28;20226;-82
2021/12/22 12:35:28;;;;;;;13.13;8.40;;;3.40;99.90;;;;;;5052961;28;20177;-81
2021/12/22 12:38:15;;;;;;;11.40;7.47;;;3.90;99.90;;;;;;5036230;28;20237;-81
2021/12/22 12:41:11;;;;;;;11.00;7.60;;;4.30;99.90;;;;;;5052717;28;20153;-81
2021/12/22 12:43:47;;;;;;;16.90;8.77;;;4.60;99.90;;;;;;5052454;28;20161;-83
2021/12/22 12:46:20;;;;;;;13.20;7.37;;;4.40;99.90;;;;;;5052644;28;20169;-83
2021/12/22 12:49:09;;;;;;;13.77;8.07;;;4.50;99.90;;;;;;5069390;28;20237;-81
2021/12/22 12:51:47;;;;;;;13.57;7.90;;;4.60;99.90;;;;;;5049896;28;20243;-85
2021/12/22 12:54:16;;;;;;;17.40;8.63;;;4.70;99.90;;;;;;5055985;28;20279;-81
2021/12/22 12:57:14;;;;;;;15.47;9.13;;;4.80;99.90;;;;;;5073382;28;20250;-80
2021/12/22 12:59:40;;;;;;;16.87;8.67;;;4.90;99.90;;;;;;5059545;28;20202;-80
2021/12/22 13:02:08;;;;;;;11.43;7.83;;;4.90;99.90;;;;;;5055945;28;20196;-84
2021/12/22 13:04:39;;;;;;;11.97;8.43;;;5.00;99.90;;;;;;5055467;28;20553;-85
2021/12/22 13:07:14;;;;;;;14.30;9.13;;;5.20;99.90;;;;;;5039270;28;20172;-84
2021/12/22 13:09:43;;;;;;;11.73;7.53;;;5.10;99.90;;;;;;5055191;28;20175;-83
2021/12/22 13:17:54;;;;;;;13.10;8.30;;;4.90;99.90;;;;;;5072869;28;20288;-82
2021/12/22 13:20:33;;;;;;;13.50;7.90;;;4.60;99.90;;;;;;5055964;28;20210;-84
2021/12/22 13:23:05;;;;;;;14.10;9.10;;;4.60;99.90;;;;;;5072935;28;20157;-84
2021/12/22 13:25:37;;;;;;;12.70;8.30;;;4.80;99.90;;;;;;5072209;28;20643;-81